Offbeat — 2JMI2 — position and weather

sailwx.info

Track history (hours):
 
Tides and Currents Weather Stations Pressure Air Temp Water Temp Dewpoint Dewpoint Depression Visibility Wind Speed Wind Dir Waves Ship Positions

Offbeat

Last reported at 2017-Sep-17 15:17 UTC. Time now 2017-Sep-20 23:49 UTC.
Position N 50°49' W 001°18'.

Length 14 m.

Type: Sailing vessel. MMSI: 235117123.

Date/timePositionNaut miles runAvg speedWind from/ knotsBaromVisibWave heightAir tempDewpointWater temp
2017-Sep-17 15:17N 50°49' W 001°18'2 6.6
2017-Sep-17 15:01N 50°48' W 001°15'3 5.5
2017-Sep-17 14:30N 50°47' W 001°11'1 2.6
2017-Sep-17 14:00N 50°46' W 001°10'1 2.8
2017-Sep-17 13:30N 50°47' W 001°07'2 3.6
2017-Sep-17 13:00N 50°48' W 001°07'1 2.4
2017-Sep-17 12:30N 50°47' W 001°07'2 3.4
2017-Sep-17 12:00N 50°46' W 001°06'2 3.0
2017-Sep-17 11:23N 50°44' W 001°05'1 2.7
2017-Sep-17 10:55N 50°43' W 001°05'1 0.1
2017-Sep-16 16:38N 50°42' W 001°06'0 3.1
2017-Sep-16 16:30N 50°42' W 001°06'1 2.7
2017-Sep-16 16:00N 50°43' W 001°05'3 5.6
2017-Sep-16 15:30N 50°45' W 001°09'1 2.9
2017-Sep-16 15:00N 50°44' W 001°12'0 0.0
2017-Sep-16 14:30N 50°44' W 001°12'0 0.0
2017-Sep-16 14:00N 50°44' W 001°12'0 0.0
2017-Sep-16 13:15N 50°44' W 001°12'0 1.5
2017-Sep-16 13:00N 50°44' W 001°12'1 2.5
2017-Sep-16 12:29N 50°46' W 001°13'1 2.2
2017-Sep-16 12:00N 50°46' W 001°14'1 2.9
2017-Sep-16 11:30N 50°47' W 001°16'1 1.7
2017-Sep-16 11:00N 50°48' W 001°15'1 1.7
2017-Sep-16 10:30N 50°48' W 001°17'  
Track history (hours):
 
Tides and Currents Weather Stations Pressure Air Temp Water Temp Dewpoint Dewpoint Depression Visibility Wind Speed Wind Dir Waves Ship Positions

Offbeat

Last reported at 2017-Sep-17 15:17 UTC. Time now 2017-Sep-20 23:49 UTC.
Position N 50°49' W 001°18'.

Length 14 m.

Type: Sailing vessel. MMSI: 235117123.

Date/timePositionNaut miles runAvg speedWind from/ knotsBaromVisibWave heightAir tempDewpointWater temp
2017-Sep-17 15:17N 50°49' W 001°18'2 6.6
2017-Sep-17 15:01N 50°48' W 001°15'3 5.5
2017-Sep-17 14:30N 50°47' W 001°11'1 2.6
2017-Sep-17 14:00N 50°46' W 001°10'1 2.8
2017-Sep-17 13:30N 50°47' W 001°07'2 3.6
2017-Sep-17 13:00N 50°48' W 001°07'1 2.4
2017-Sep-17 12:30N 50°47' W 001°07'2 3.4
2017-Sep-17 12:00N 50°46' W 001°06'2 3.0
2017-Sep-17 11:23N 50°44' W 001°05'1 2.7
2017-Sep-17 10:55N 50°43' W 001°05'1 0.1
2017-Sep-16 16:38N 50°42' W 001°06'0 3.1
2017-Sep-16 16:30N 50°42' W 001°06'1 2.7
2017-Sep-16 16:00N 50°43' W 001°05'3 5.6
2017-Sep-16 15:30N 50°45' W 001°09'1 2.9
2017-Sep-16 15:00N 50°44' W 001°12'0 0.0
2017-Sep-16 14:30N 50°44' W 001°12'0 0.0
2017-Sep-16 14:00N 50°44' W 001°12'0 0.0
2017-Sep-16 13:15N 50°44' W 001°12'0 1.5
2017-Sep-16 13:00N 50°44' W 001°12'1 2.5
2017-Sep-16 12:29N 50°46' W 001°13'1 2.2
2017-Sep-16 12:00N 50°46' W 001°14'1 2.9
2017-Sep-16 11:30N 50°47' W 001°16'1 1.7
2017-Sep-16 11:00N 50°48' W 001°15'1 1.7
2017-Sep-16 10:30N 50°48' W 001°17'  

Dump ship's entire track history